CW8078 Weather Reports


time (UTC)temp
F
wind
direction
speed
knots
gust
knots
rain 1hr
in
rain 24hr
in
rain mn
in
humidity
%
barometer
mb
20260903234804 90 355 0.0 0.0 0.00 0.00 0.00 62 1008.9
20260903234303 90 355 0.0 0.0 0.00 0.00 0.00 62 1008.8
20260903233803 91 355 0.0 0.0 0.00 0.00 0.00 60 1008.8
20260903233303 91 355 0.0 0.0 0.00 0.00 0.00 60 1008.8
20260903231803 92 355 0.0 0.0 0.00 0.00 0.00 57 1008.8
20260903231304 92 152 0.0 0.0 0.00 0.00 0.00 57 1008.8
20260903230803 92 152 0.0 0.0 0.00 0.00 0.00 56 1008.8
20260903230304 92 152 0.0 0.0 0.00 0.00 0.00 55 1008.8
20260903224304 93 152 0.0 0.0 0.00 0.00 0.00 54 1008.6
20260903223803 94 98 0.0 0.0 0.00 0.00 0.00 55 1008.7
20260903223303 94 98 0.0 0.0 0.00 0.00 0.00 55 1008.7
20260903221803 95 98 0.0 0.0 0.00 0.00 0.00 49 1008.7
20260903221304 96 98 0.0 0.0 0.00 0.00 0.00 48 1008.7
20260903220803 96 98 0.0 0.0 0.00 0.00 0.00 48 1008.8
20260903220304 96 144 0.0 0.0 0.00 0.00 0.00 47 1008.8
20260903214804 96 177 0.0 0.0 0.00 0.00 0.00 48 1008.8
20260903214304 96 177 0.0 0.0 0.00 0.00 0.00 48 1008.8
20260903213804 96 193 0.0 0.9 0.00 0.00 0.00 48 1008.9
20260903213303 96 24 0.0 0.9 0.00 0.00 0.00 50 1008.9
20260903211804 96 169 0.0 0.0 0.00 0.00 0.00 52 1009.0
20260903211303 96 166 0.0 0.0 0.00 0.00 0.00 48 1009.1
20260903210803 96 177 0.0 0.0 0.00 0.00 0.00 47 1009.1
20260903210304 96 128 0.0 0.0 0.00 0.00 0.00 46 1009.2
20260903204803 96 140 0.0 0.0 0.00 0.00 0.00 46 1009.2
20260903204303 96 142 0.0 0.0 0.00 0.00 0.00 46 1009.3
20260903203803 96 156 0.0 0.0 0.00 0.00 0.00 48 1009.3
20260903201803 98 249 0.0 0.0 0.00 0.00 0.00 47 1009.5
20260903201303 98 251 0.0 0.0 0.00 0.00 0.00 47 1009.5
20260903200803 98 153 0.0 0.0 0.00 0.00 0.00 44 1009.6
20260903200303 98 145 0.0 0.9 0.00 0.00 0.00 45 1009.7
20260903194804 97 136 0.0 0.0 0.00 0.00 0.00 46 1009.8
20260903194303 96 101 0.0 0.0 0.00 0.00 0.00 49 1009.9
20260903193803 96 133 0.0 0.0 0.00 0.00 0.00 49 1010.0
20260903193303 97 155 0.0 0.9 0.00 0.00 0.00 47 1010.0
20260903191803 98 161 0.0 0.0 0.00 0.00 0.00 45 1010.3
20260903191303 98 173 0.0 0.0 0.00 0.00 0.00 44 1010.3
20260903190803 98 164 0.0 0.0 0.00 0.00 0.00 44 1010.4
20260903190304 98 155 0.0 0.9 0.00 0.00 0.00 50 1010.4
20260903184804 98 134 0.0 0.0 0.00 0.00 0.00 47 1010.6
20260903184303 98 328 0.0 0.9 0.00 0.00 0.00 49 1010.6
20260903180803 98 135 0.0 0.0 0.00 0.00 0.00 48 1010.9
20260903180303 98 170 0.0 0.0 0.00 0.00 0.00 49 1011.0
20260903174803 97 161 0.0 0.0 0.00 0.00 0.00 49 1011.2
20260903174303 97 147 0.0 0.0 0.00 0.00 0.00 50 1011.2
20260903173804 97 177 0.0 0.0 0.00 0.00 0.00 51 1011.3
20260903173304 97 198 0.0 0.0 0.00 0.00 0.00 50 1011.3
20260903171804 97 3 0.0 0.0 0.00 0.00 0.00 53 1011.6
20260903171303 96 180 0.0 0.0 0.00 0.00 0.00 55 1011.7
20260903170803 95 259 0.0 0.0 0.00 0.00 0.00 54 1011.7
20260903170306 95 270 0.0 0.0 0.00 0.00 0.00 54 1011.7
20260903164803 93 187 0.0 0.0 0.00 0.00 0.00 59 1011.8
20260903164303 92 163 0.0 0.0 0.00 0.00 0.00 60 1011.8
20260903163303 91 153 0.0 0.9 0.00 0.00 0.00 61 1012.0
20260903161803 91 144 0.0 0.0 0.00 0.00 0.00 60 1012.0
20260903161303 91 196 0.0 0.0 0.00 0.00 0.00 60 1012.1
20260903160804 90 185 0.0 0.0 0.00 0.00 0.00 61 1012.1
20260903160304 90 186 0.0 0.9 0.00 0.00 0.00 62 1012.1
20260903154804 89 157 0.0 0.0 0.00 0.00 0.00 67 1012.2
20260903154302 88 157 0.0 0.0 0.00 0.00 0.00 66 1012.3
20260903153802 88 157 0.0 0.0 0.00 0.00 0.00 67 1012.3
20260903153302 87 282 0.0 0.9 0.00 0.00 0.00 67 1012.3
20260903151801 87 187 0.0 0.0 0.00 0.00 0.00 70 1012.3
20260903151302 87 187 0.0 0.0 0.00 0.00 0.00 70 1012.3
20260903150801 86 187 0.0 0.0 0.00 0.00 0.00 70 1012.3
20260903150302 86 177 0.0 0.0 0.00 0.00 0.00 71 1012.2
20260903144302 84 170 0.0 0.0 0.00 0.00 0.00 74 1012.2
20260903143801 84 170 0.0 0.0 0.00 0.00 0.00 73 1012.2
20260903143302 84 170 0.0 0.0 0.00 0.00 0.00 74 1012.2
20260903141802 83 170 0.0 0.0 0.00 0.00 0.00 73 1012.2
20260903141301 83 172 0.0 0.9 0.00 0.00 0.00 75 1012.3
20260903134801 80 164 0.0 0.0 0.00 0.00 0.00 78 1012.3
20260903133802 80 164 0.0 0.0 0.00 0.00 0.00 79 1012.4
20260903131302 77 97 0.0 0.0 0.00 0.00 0.00 83 1012.2
20260903130802 77 97 0.0 0.0 0.00 0.00 0.00 84 1012.2
20260903130302 76 97 0.0 0.0 0.00 0.00 0.00 85 1012.2
20260903124801 74 97 0.0 0.0 0.00 0.00 0.00 88 1012.2
20260903124302 74 97 0.0 0.0 0.00 0.00 0.00 89 1012.2
20260903123802 73 97 0.0 0.0 0.00 0.00 0.00 88 1012.2
20260903123302 73 97 0.0 0.0 0.00 0.00 0.00 88 1012.1
20260903121802 73 97 0.0 0.0 0.00 0.00 0.00 89 1012.1
20260903121302 73 97 0.0 0.0 0.00 0.00 0.00 89 1012.1
20260903120802 73 97 0.0 0.0 0.00 0.00 0.00 88 1012.1
20260903120301 73 97 0.0 0.0 0.00 0.00 0.00 88 1012.1
20260903114802 73 97 0.0 0.0 0.00 0.00 0.00 88 1012.0
20260903114301 73 97 0.0 0.0 0.00 0.00 0.00 88 1011.9
20260903113801 73 97 0.0 0.0 0.00 0.00 0.00 88 1011.9
20260903110302 73 97 0.0 0.0 0.00 0.00 0.00 87 1011.7
20260903104802 73 97 0.0 0.0 0.00 0.00 0.00 86 1011.5
20260903104302 73 97 0.0 0.0 0.00 0.00 0.00 86 1011.4
20260903103803 74 97 0.0 0.0 0.00 0.00 0.00 87 1011.4
20260903103302 74 97 0.0 0.0 0.00 0.00 0.00 86 1011.4
20260903101802 74 97 0.0 0.0 0.00 0.00 0.00 86 1011.4
20260903101302 74 97 0.0 0.0 0.00 0.00 0.00 86 1011.4
20260903100302 74 97 0.0 0.0 0.00 0.00 0.00 87 1011.4
20260903094802 74 97 0.0 0.0 0.00 0.00 0.00 86 1011.4
20260903093802 74 97 0.0 0.0 0.00 0.00 0.00 85 1011.4
20260903093302 74 97 0.0 0.0 0.00 0.00 0.00 85 1011.4
20260903091802 74 97 0.0 0.0 0.00 0.00 0.00 84 1011.4
20260903090801 75 97 0.0 0.0 0.00 0.00 0.00 84 1011.4
20260903090302 75 97 0.0 0.0 0.00 0.00 0.00 84 1011.3
20260903084802 75 97 0.0 0.0 0.00 0.00 0.00 85 1011.4
20260903083802 75 97 0.0 0.0 0.00 0.00 0.00 84 1011.3
20260903083302 76 97 0.0 0.0 0.00 0.00 0.00 84 1011.3
20260903081802 76 97 0.0 0.0 0.00 0.00 0.00 82 1011.2
20260903081302 76 97 0.0 0.0 0.00 0.00 0.00 82 1011.1
20260903080802 76 97 0.0 0.0 0.00 0.00 0.00 83 1011.1
20260903080302 76 97 0.0 0.0 0.00 0.00 0.00 83 1011.1
20260903074802 76 97 0.0 0.0 0.00 0.00 0.00 83 1011.1
20260903074302 76 97 0.0 0.0 0.00 0.00 0.00 82 1011.1
20260903073802 76 97 0.0 0.0 0.00 0.00 0.00 82 1011.1
20260903073302 77 97 0.0 0.0 0.00 0.00 0.00 82 1011.2
20260903071802 77 97 0.0 0.0 0.00 0.00 0.00 82 1011.2
20260903071302 77 97 0.0 0.0 0.00 0.00 0.00 82 1011.2
20260903070802 77 97 0.0 0.0 0.00 0.00 0.00 83 1011.2
20260903064801 78 97 0.0 0.0 0.00 0.00 0.00 80 1011.2
20260903064302 78 97 0.0 0.0 0.00 0.00 0.00 80 1011.2
20260903063802 78 97 0.0 0.0 0.00 0.00 0.00 81 1011.2
20260903063302 78 97 0.0 0.0 0.00 0.00 0.00 79 1011.2
20260903061802 79 97 0.0 0.0 0.00 0.00 0.00 79 1011.3
20260903061302 79 97 0.0 0.0 0.00 0.00 0.00 79 1011.2
20260903060802 79 97 0.0 0.0 0.00 0.00 0.00 79 1011.2
20260903060302 79 97 0.0 0.0 0.00 0.00 0.00 78 1011.1
20260903054802 80 97 0.0 0.0 0.00 0.00 0.00 77 1011.1
20260903054302 80 97 0.0 0.0 0.00 0.00 0.00 77 1011.0
20260903053802 81 97 0.0 0.0 0.00 0.00 0.00 76 1011.0
20260903053302 81 126 0.0 0.0 0.00 0.00 0.00 76 1011.0
20260903051802 82 126 0.0 0.0 0.00 0.00 0.00 74 1010.9
20260903051302 82 126 0.0 0.0 0.00 0.00 0.00 73 1010.9
20260903050802 82 131 0.0 0.0 0.00 0.00 0.00 74 1010.9
20260903050302 82 131 0.0 0.0 0.00 0.00 0.00 74 1010.9
20260903044803 83 157 0.0 0.0 0.00 0.00 0.00 73 1010.7
20260903043802 83 142 0.0 0.0 0.00 0.00 0.00 73 1010.6
20260903043302 83 136 0.0 0.0 0.00 0.00 0.00 73 1010.6
20260903041802 83 129 0.0 0.0 0.00 0.00 0.00 73 1010.7
20260903041302 83 123 0.0 0.0 0.00 0.00 0.00 73 1010.7
20260903040804 83 123 0.0 0.0 0.00 0.00 0.00 73 1010.7
20260903040302 83 123 0.0 0.0 0.00 0.00 0.00 73 1010.7
20260903033302 83 123 0.0 0.0 0.00 0.00 0.00 73 1010.7
20260903031302 84 123 0.0 0.0 0.00 0.00 0.00 73 1010.8
20260903030302 84 123 0.0 0.0 0.00 0.00 0.00 73 1010.7
20260903024802 85 123 0.0 0.0 0.00 0.00 0.00 70 1010.7
20260903024302 85 123 0.0 0.0 0.00 0.00 0.00 70 1010.8
20260903023802 85 123 0.0 0.0 0.00 0.00 0.00 70 1010.8
20260903023302 85 123 0.0 0.0 0.00 0.00 0.00 70 1010.7
20260903021802 84 142 0.0 0.0 0.00 0.00 0.00 72 1010.7
20260903014803 84 142 0.0 0.0 0.00 0.00 0.00 72 1010.3
20260903014303 84 142 0.0 0.0 0.00 0.00 0.00 72 1010.3
20260903013802 84 142 0.0 0.0 0.00 0.00 0.00 72 1010.2
20260903013302 85 142 0.0 0.0 0.00 0.00 0.00 72 1010.1
20260903011802 85 142 0.0 0.0 0.00 0.00 0.00 72 1010.0
20260903011302 85 142 0.0 0.0 0.00 0.00 0.00 72 1009.9
20260903010802 85 142 0.0 0.0 0.00 0.00 0.00 72 1009.9
20260903010302 85 142 0.0 0.0 0.00 0.00 0.00 72 1009.9
20260903004803 86 142 0.0 0.0 0.00 0.00 0.00 71 1010.0
20260903004303 86 142 0.0 0.0 0.00 0.00 0.00 70 1009.9
20260903003803 87 142 0.0 0.0 0.00 0.00 0.00 70 1009.9
20260903003302 87 142 0.0 0.0 0.00 0.00 0.00 70 1009.9
20260903001802 88 142 0.0 0.0 0.00 0.00 0.00 68 1010.0
20260903000802 88 142 0.0 0.0 0.00 0.00 0.00 67 1010.0
20260903000303 89 142 0.0 0.0 0.00 0.00 0.00 67 1010.0